sensor_id;sensor_type;location;lat;lon;timestamp;P1;durP1;ratioP1;P2;durP2;ratioP2
22282;SDS011;11310;51.528;21.204;2022-07-25T00:00:56;8.88;;;3.08;;
22282;SDS011;11310;51.528;21.204;2022-07-25T00:03:28;4.53;;;2.25;;
22282;SDS011;11310;51.528;21.204;2022-07-25T00:05:57;4.72;;;2.28;;
22282;SDS011;11310;51.528;21.204;2022-07-25T00:08:26;7.60;;;2.50;;
22282;SDS011;11310;51.528;21.204;2022-07-25T00:10:55;7.47;;;2.60;;
22282;SDS011;11310;51.528;21.204;2022-07-25T00:13:25;4.38;;;2.47;;
22282;SDS011;11310;51.528;21.204;2022-07-25T00:15:54;4.28;;;2.65;;
22282;SDS011;11310;51.528;21.204;2022-07-25T00:18:23;5.43;;;2.60;;
22282;SDS011;11310;51.528;21.204;2022-07-25T00:20:54;4.55;;;2.53;;
22282;SDS011;11310;51.528;21.204;2022-07-25T00:23:23;6.57;;;2.40;;
22282;SDS011;11310;51.528;21.204;2022-07-25T00:25:52;6.00;;;2.70;;
22282;SDS011;11310;51.528;21.204;2022-07-25T00:28:21;4.93;;;2.50;;
22282;SDS011;11310;51.528;21.204;2022-07-25T00:30:49;6.40;;;2.95;;
22282;SDS011;11310;51.528;21.204;2022-07-25T00:33:19;4.93;;;2.15;;
22282;SDS011;11310;51.528;21.204;2022-07-25T00:35:47;3.70;;;2.22;;
22282;SDS011;11310;51.528;21.204;2022-07-25T00:38:18;3.55;;;2.28;;
22282;SDS011;11310;51.528;21.204;2022-07-25T00:43:21;5.28;;;2.55;;
22282;SDS011;11310;51.528;21.204;2022-07-25T00:45:50;4.57;;;2.35;;
22282;SDS011;11310;51.528;21.204;2022-07-25T00:48:20;4.35;;;2.10;;
22282;SDS011;11310;51.528;21.204;2022-07-25T00:50:49;4.65;;;2.90;;
22282;SDS011;11310;51.528;21.204;2022-07-25T00:53:22;4.13;;;2.60;;
22282;SDS011;11310;51.528;21.204;2022-07-25T00:55:51;6.57;;;2.43;;
22282;SDS011;11310;51.528;21.204;2022-07-25T00:58:21;6.28;;;2.45;;
22282;SDS011;11310;51.528;21.204;2022-07-25T01:00:50;4.15;;;2.50;;
22282;SDS011;11310;51.528;21.204;2022-07-25T01:03:19;8.18;;;3.47;;
22282;SDS011;11310;51.528;21.204;2022-07-25T01:05:48;4.47;;;2.60;;
22282;SDS011;11310;51.528;21.204;2022-07-25T01:08:20;5.65;;;2.60;;
22282;SDS011;11310;51.528;21.204;2022-07-25T01:10:50;4.38;;;2.50;;
22282;SDS011;11310;51.528;21.204;2022-07-25T01:13:19;7.88;;;2.40;;
22282;SDS011;11310;51.528;21.204;2022-07-25T01:15:49;4.63;;;2.67;;
22282;SDS011;11310;51.528;21.204;2022-07-25T01:18:18;5.03;;;2.63;;
22282;SDS011;11310;51.528;21.204;2022-07-25T01:20:49;5.45;;;2.65;;
22282;SDS011;11310;51.528;21.204;2022-07-25T01:23:21;6.68;;;2.55;;
22282;SDS011;11310;51.528;21.204;2022-07-25T01:25:51;5.35;;;2.60;;
22282;SDS011;11310;51.528;21.204;2022-07-25T01:28:20;5.20;;;2.67;;
22282;SDS011;11310;51.528;21.204;2022-07-25T01:30:50;5.47;;;2.70;;
22282;SDS011;11310;51.528;21.204;2022-07-25T01:33:19;6.28;;;2.90;;
22282;SDS011;11310;51.528;21.204;2022-07-25T01:35:50;6.07;;;2.83;;
22282;SDS011;11310;51.528;21.204;2022-07-25T01:38:19;6.30;;;2.83;;
22282;SDS011;11310;51.528;21.204;2022-07-25T01:40:49;5.63;;;3.08;;
22282;SDS011;11310;51.528;21.204;2022-07-25T01:43:18;4.40;;;2.58;;
22282;SDS011;11310;51.528;21.204;2022-07-25T01:45:48;6.90;;;2.60;;
22282;SDS011;11310;51.528;21.204;2022-07-25T01:48:17;5.47;;;2.85;;
22282;SDS011;11310;51.528;21.204;2022-07-25T01:50:50;6.25;;;2.63;;
22282;SDS011;11310;51.528;21.204;2022-07-25T01:53:20;4.07;;;2.78;;
22282;SDS011;11310;51.528;21.204;2022-07-25T01:55:50;3.55;;;2.40;;
22282;SDS011;11310;51.528;21.204;2022-07-25T01:58:20;5.65;;;2.60;;
22282;SDS011;11310;51.528;21.204;2022-07-25T02:00:49;4.40;;;2.58;;
22282;SDS011;11310;51.528;21.204;2022-07-25T02:03:19;6.00;;;2.60;;
22282;SDS011;11310;51.528;21.204;2022-07-25T02:05:58;7.47;;;2.75;;
22282;SDS011;11310;51.528;21.204;2022-07-25T02:08:29;8.55;;;2.88;;
22282;SDS011;11310;51.528;21.204;2022-07-25T02:10:58;6.15;;;2.72;;
22282;SDS011;11310;51.528;21.204;2022-07-25T02:13:27;6.97;;;2.53;;
22282;SDS011;11310;51.528;21.204;2022-07-25T02:15:56;6.40;;;2.80;;
22282;SDS011;11310;51.528;21.204;2022-07-25T02:18:24;5.75;;;2.63;;
22282;SDS011;11310;51.528;21.204;2022-07-25T02:20:53;4.22;;;2.30;;
22282;SDS011;11310;51.528;21.204;2022-07-25T02:23:23;8.90;;;3.05;;
22282;SDS011;11310;51.528;21.204;2022-07-25T02:25:52;6.30;;;2.53;;
22282;SDS011;11310;51.528;21.204;2022-07-25T02:28:21;7.28;;;2.90;;
22282;SDS011;11310;51.528;21.204;2022-07-25T02:30:49;5.78;;;2.67;;
22282;SDS011;11310;51.528;21.204;2022-07-25T02:33:18;6.00;;;2.80;;
22282;SDS011;11310;51.528;21.204;2022-07-25T02:35:47;4.22;;;2.47;;
22282;SDS011;11310;51.528;21.204;2022-07-25T02:38:17;6.70;;;2.72;;
22282;SDS011;11310;51.528;21.204;2022-07-25T02:40:50;13.07;;;2.97;;
22282;SDS011;11310;51.528;21.204;2022-07-25T02:43:19;7.15;;;2.70;;
22282;SDS011;11310;51.528;21.204;2022-07-25T02:45:48;4.93;;;2.63;;
22282;SDS011;11310;51.528;21.204;2022-07-25T02:48:18;6.30;;;2.67;;
22282;SDS011;11310;51.528;21.204;2022-07-25T02:50:47;7.07;;;3.00;;
22282;SDS011;11310;51.528;21.204;2022-07-25T02:53:16;6.78;;;2.88;;
22282;SDS011;11310;51.528;21.204;2022-07-25T02:56:12;8.60;;;2.80;;
22282;SDS011;11310;51.528;21.204;2022-07-25T02:58:42;6.97;;;2.50;;
22282;SDS011;11310;51.528;21.204;2022-07-25T03:03:43;7.18;;;2.80;;
22282;SDS011;11310;51.528;21.204;2022-07-25T03:06:12;15.90;;;3.33;;
22282;SDS011;11310;51.528;21.204;2022-07-25T03:11:16;6.60;;;2.78;;
22282;SDS011;11310;51.528;21.204;2022-07-25T03:13:46;7.43;;;2.75;;
22282;SDS011;11310;51.528;21.204;2022-07-25T03:16:16;6.25;;;3.10;;
22282;SDS011;11310;51.528;21.204;2022-07-25T03:18:46;4.45;;;2.70;;
22282;SDS011;11310;51.528;21.204;2022-07-25T03:21:15;10.55;;;3.20;;
22282;SDS011;11310;51.528;21.204;2022-07-25T03:23:45;7.15;;;3.33;;
22282;SDS011;11310;51.528;21.204;2022-07-25T03:26:19;6.88;;;3.03;;
22282;SDS011;11310;51.528;21.204;2022-07-25T03:28:51;7.57;;;3.17;;
22282;SDS011;11310;51.528;21.204;2022-07-25T03:31:21;9.10;;;3.13;;
22282;SDS011;11310;51.528;21.204;2022-07-25T03:33:51;10.00;;;3.20;;
22282;SDS011;11310;51.528;21.204;2022-07-25T03:36:20;10.55;;;2.80;;
22282;SDS011;11310;51.528;21.204;2022-07-25T03:38:49;6.22;;;3.10;;
22282;SDS011;11310;51.528;21.204;2022-07-25T03:41:23;5.68;;;2.85;;
22282;SDS011;11310;51.528;21.204;2022-07-25T03:43:53;6.78;;;2.83;;
22282;SDS011;11310;51.528;21.204;2022-07-25T03:46:23;12.68;;;3.05;;
22282;SDS011;11310;51.528;21.204;2022-07-25T03:48:56;9.98;;;3.40;;
22282;SDS011;11310;51.528;21.204;2022-07-25T03:51:25;10.82;;;3.38;;
22282;SDS011;11310;51.528;21.204;2022-07-25T03:53:53;8.73;;;3.33;;
22282;SDS011;11310;51.528;21.204;2022-07-25T03:56:36;12.45;;;3.60;;
22282;SDS011;11310;51.528;21.204;2022-07-25T03:59:12;9.73;;;3.50;;
22282;SDS011;11310;51.528;21.204;2022-07-25T04:01:43;8.57;;;3.40;;
22282;SDS011;11310;51.528;21.204;2022-07-25T04:04:16;9.97;;;3.37;;
22282;SDS011;11310;51.528;21.204;2022-07-25T04:06:46;5.25;;;3.42;;
22282;SDS011;11310;51.528;21.204;2022-07-25T04:09:15;7.18;;;3.58;;
22282;SDS011;11310;51.528;21.204;2022-07-25T04:11:45;6.88;;;3.58;;
22282;SDS011;11310;51.528;21.204;2022-07-25T04:14:15;6.68;;;3.40;;
22282;SDS011;11310;51.528;21.204;2022-07-25T04:16:45;5.10;;;2.92;;
22282;SDS011;11310;51.528;21.204;2022-07-25T04:19:15;10.50;;;3.60;;
22282;SDS011;11310;51.528;21.204;2022-07-25T04:21:44;5.40;;;3.15;;
22282;SDS011;11310;51.528;21.204;2022-07-25T04:24:13;7.38;;;3.53;;
22282;SDS011;11310;51.528;21.204;2022-07-25T04:26:42;6.35;;;3.15;;
22282;SDS011;11310;51.528;21.204;2022-07-25T04:29:12;7.55;;;3.35;;
22282;SDS011;11310;51.528;21.204;2022-07-25T04:31:41;6.32;;;3.42;;
22282;SDS011;11310;51.528;21.204;2022-07-25T04:34:11;6.05;;;3.30;;
22282;SDS011;11310;51.528;21.204;2022-07-25T04:36:40;6.95;;;3.15;;
22282;SDS011;11310;51.528;21.204;2022-07-25T04:39:13;7.65;;;3.40;;
22282;SDS011;11310;51.528;21.204;2022-07-25T04:41:42;5.47;;;3.47;;
22282;SDS011;11310;51.528;21.204;2022-07-25T04:44:13;9.10;;;3.75;;
22282;SDS011;11310;51.528;21.204;2022-07-25T04:46:42;6.20;;;3.38;;
22282;SDS011;11310;51.528;21.204;2022-07-25T04:49:11;7.45;;;4.05;;
22282;SDS011;11310;51.528;21.204;2022-07-25T04:51:44;10.32;;;4.72;;
22282;SDS011;11310;51.528;21.204;2022-07-25T04:54:16;9.73;;;4.90;;
22282;SDS011;11310;51.528;21.204;2022-07-25T04:56:46;9.13;;;4.40;;
22282;SDS011;11310;51.528;21.204;2022-07-25T04:59:24;8.13;;;4.13;;
22282;SDS011;11310;51.528;21.204;2022-07-25T05:01:56;9.25;;;4.78;;
22282;SDS011;11310;51.528;21.204;2022-07-25T05:04:26;9.27;;;5.00;;
22282;SDS011;11310;51.528;21.204;2022-07-25T05:06:55;8.93;;;4.38;;
22282;SDS011;11310;51.528;21.204;2022-07-25T05:09:24;9.98;;;4.47;;
22282;SDS011;11310;51.528;21.204;2022-07-25T05:11:54;9.35;;;4.45;;
22282;SDS011;11310;51.528;21.204;2022-07-25T05:14:25;9.65;;;4.68;;
22282;SDS011;11310;51.528;21.204;2022-07-25T05:16:54;7.55;;;4.22;;
22282;SDS011;11310;51.528;21.204;2022-07-25T05:21:54;9.38;;;4.50;;
22282;SDS011;11310;51.528;21.204;2022-07-25T05:24:25;10.50;;;5.00;;
22282;SDS011;11310;51.528;21.204;2022-07-25T05:26:54;9.88;;;4.82;;
22282;SDS011;11310;51.528;21.204;2022-07-25T05:29:28;9.45;;;4.93;;
22282;SDS011;11310;51.528;21.204;2022-07-25T05:32:00;8.55;;;4.63;;
22282;SDS011;11310;51.528;21.204;2022-07-25T05:34:29;6.30;;;3.92;;
22282;SDS011;11310;51.528;21.204;2022-07-25T05:36:58;8.20;;;3.95;;
22282;SDS011;11310;51.528;21.204;2022-07-25T05:39:29;9.25;;;4.40;;
22282;SDS011;11310;51.528;21.204;2022-07-25T05:41:58;8.80;;;4.68;;
22282;SDS011;11310;51.528;21.204;2022-07-25T05:44:32;8.50;;;4.68;;
22282;SDS011;11310;51.528;21.204;2022-07-25T05:47:07;9.82;;;3.85;;
22282;SDS011;11310;51.528;21.204;2022-07-25T05:49:37;9.18;;;4.72;;
22282;SDS011;11310;51.528;21.204;2022-07-25T05:52:07;8.63;;;4.70;;
22282;SDS011;11310;51.528;21.204;2022-07-25T05:54:46;7.50;;;4.15;;
22282;SDS011;11310;51.528;21.204;2022-07-25T05:57:15;7.70;;;4.05;;
22282;SDS011;11310;51.528;21.204;2022-07-25T05:59:53;6.68;;;3.60;;
22282;SDS011;11310;51.528;21.204;2022-07-25T06:02:22;8.35;;;3.90;;
22282;SDS011;11310;51.528;21.204;2022-07-25T06:04:51;7.13;;;3.95;;
22282;SDS011;11310;51.528;21.204;2022-07-25T06:09:51;6.72;;;3.38;;
22282;SDS011;11310;51.528;21.204;2022-07-25T06:12:21;6.20;;;3.45;;
22282;SDS011;11310;51.528;21.204;2022-07-25T06:14:50;7.20;;;3.00;;
22282;SDS011;11310;51.528;21.204;2022-07-25T06:17:21;5.65;;;3.20;;
22282;SDS011;11310;51.528;21.204;2022-07-25T06:19:58;5.53;;;2.95;;
22282;SDS011;11310;51.528;21.204;2022-07-25T06:22:28;4.82;;;2.90;;
22282;SDS011;11310;51.528;21.204;2022-07-25T06:25:00;8.27;;;2.83;;
22282;SDS011;11310;51.528;21.204;2022-07-25T06:27:31;4.65;;;2.60;;
22282;SDS011;11310;51.528;21.204;2022-07-25T06:30:02;6.10;;;2.78;;
22282;SDS011;11310;51.528;21.204;2022-07-25T06:32:38;6.03;;;2.78;;
22282;SDS011;11310;51.528;21.204;2022-07-25T06:35:07;6.25;;;2.85;;
22282;SDS011;11310;51.528;21.204;2022-07-25T06:37:36;6.90;;;3.15;;
22282;SDS011;11310;51.528;21.204;2022-07-25T06:40:07;7.57;;;3.13;;
22282;SDS011;11310;51.528;21.204;2022-07-25T06:42:40;6.40;;;3.30;;
22282;SDS011;11310;51.528;21.204;2022-07-25T06:45:10;7.47;;;3.40;;
22282;SDS011;11310;51.528;21.204;2022-07-25T06:52:47;4.82;;;2.70;;
22282;SDS011;11310;51.528;21.204;2022-07-25T06:55:17;5.88;;;2.50;;
22282;SDS011;11310;51.528;21.204;2022-07-25T06:57:46;6.38;;;2.88;;
22282;SDS011;11310;51.528;21.204;2022-07-25T07:00:15;4.95;;;2.25;;
22282;SDS011;11310;51.528;21.204;2022-07-25T07:02:53;4.13;;;2.65;;
22282;SDS011;11310;51.528;21.204;2022-07-25T07:05:30;4.45;;;1.95;;
22282;SDS011;11310;51.528;21.204;2022-07-25T07:08:00;4.05;;;2.10;;
22282;SDS011;11310;51.528;21.204;2022-07-25T07:10:29;3.78;;;2.20;;
22282;SDS011;11310;51.528;21.204;2022-07-25T07:13:03;6.05;;;2.63;;
22282;SDS011;11310;51.528;21.204;2022-07-25T07:15:33;9.00;;;3.88;;
22282;SDS011;11310;51.528;21.204;2022-07-25T07:18:05;5.63;;;2.72;;
22282;SDS011;11310;51.528;21.204;2022-07-25T07:20:34;4.95;;;2.20;;
22282;SDS011;11310;51.528;21.204;2022-07-25T07:23:03;3.22;;;1.90;;
22282;SDS011;11310;51.528;21.204;2022-07-25T07:25:34;5.45;;;2.60;;
22282;SDS011;11310;51.528;21.204;2022-07-25T07:28:03;5.97;;;2.40;;
22282;SDS011;11310;51.528;21.204;2022-07-25T07:30:33;7.30;;;2.30;;
22282;SDS011;11310;51.528;21.204;2022-07-25T07:33:23;4.53;;;2.20;;
22282;SDS011;11310;51.528;21.204;2022-07-25T07:35:53;7.03;;;2.77;;
22282;SDS011;11310;51.528;21.204;2022-07-25T07:38:23;4.53;;;1.58;;
22282;SDS011;11310;51.528;21.204;2022-07-25T07:40:52;3.05;;;1.77;;
22282;SDS011;11310;51.528;21.204;2022-07-25T07:43:22;13.50;;;1.85;;
22282;SDS011;11310;51.528;21.204;2022-07-25T07:45:56;6.00;;;1.45;;
22282;SDS011;11310;51.528;21.204;2022-07-25T07:48:31;4.38;;;1.75;;
22282;SDS011;11310;51.528;21.204;2022-07-25T07:51:01;2.42;;;1.27;;
22282;SDS011;11310;51.528;21.204;2022-07-25T07:53:30;6.45;;;1.60;;
22282;SDS011;11310;51.528;21.204;2022-07-25T07:56:20;16.13;;;2.13;;
22282;SDS011;11310;51.528;21.204;2022-07-25T07:58:53;4.82;;;1.40;;
22282;SDS011;11310;51.528;21.204;2022-07-25T08:01:24;4.43;;;2.05;;
22282;SDS011;11310;51.528;21.204;2022-07-25T08:04:03;3.40;;;1.80;;
22282;SDS011;11310;51.528;21.204;2022-07-25T08:06:36;5.88;;;2.00;;
22282;SDS011;11310;51.528;21.204;2022-07-25T08:09:08;3.35;;;1.92;;
22282;SDS011;11310;51.528;21.204;2022-07-25T08:11:37;3.72;;;1.95;;
22282;SDS011;11310;51.528;21.204;2022-07-25T08:14:06;6.30;;;2.10;;
22282;SDS011;11310;51.528;21.204;2022-07-25T08:16:36;3.47;;;1.95;;
22282;SDS011;11310;51.528;21.204;2022-07-25T08:19:10;2.67;;;1.85;;
22282;SDS011;11310;51.528;21.204;2022-07-25T08:21:43;3.88;;;2.40;;
22282;SDS011;11310;51.528;21.204;2022-07-25T08:24:16;3.08;;;1.75;;
22282;SDS011;11310;51.528;21.204;2022-07-25T08:26:49;5.05;;;2.30;;
22282;SDS011;11310;51.528;21.204;2022-07-25T08:29:18;2.88;;;1.80;;
22282;SDS011;11310;51.528;21.204;2022-07-25T08:31:54;3.17;;;2.00;;
22282;SDS011;11310;51.528;21.204;2022-07-25T08:34:24;3.30;;;1.98;;
22282;SDS011;11310;51.528;21.204;2022-07-25T08:36:53;5.03;;;1.75;;
22282;SDS011;11310;51.528;21.204;2022-07-25T08:39:22;3.47;;;2.00;;
22282;SDS011;11310;51.528;21.204;2022-07-25T08:41:51;3.10;;;1.90;;
22282;SDS011;11310;51.528;21.204;2022-07-25T08:44:23;3.95;;;2.22;;
22282;SDS011;11310;51.528;21.204;2022-07-25T08:46:59;2.97;;;1.70;;
22282;SDS011;11310;51.528;21.204;2022-07-25T08:49:30;2.65;;;1.88;;
22282;SDS011;11310;51.528;21.204;2022-07-25T08:51:59;4.65;;;1.95;;
22282;SDS011;11310;51.528;21.204;2022-07-25T08:54:29;2.88;;;1.90;;
22282;SDS011;11310;51.528;21.204;2022-07-25T08:57:00;4.55;;;1.83;;
22282;SDS011;11310;51.528;21.204;2022-07-25T08:59:29;3.83;;;2.08;;
22282;SDS011;11310;51.528;21.204;2022-07-25T09:02:01;3.17;;;2.00;;
22282;SDS011;11310;51.528;21.204;2022-07-25T09:04:34;5.10;;;1.98;;
22282;SDS011;11310;51.528;21.204;2022-07-25T09:07:04;4.80;;;2.30;;
22282;SDS011;11310;51.528;21.204;2022-07-25T09:09:35;3.55;;;2.10;;
22282;SDS011;11310;51.528;21.204;2022-07-25T09:12:05;2.90;;;1.85;;
22282;SDS011;11310;51.528;21.204;2022-07-25T09:14:40;4.07;;;1.80;;
22282;SDS011;11310;51.528;21.204;2022-07-25T09:17:10;3.22;;;1.80;;
22282;SDS011;11310;51.528;21.204;2022-07-25T09:19:54;2.70;;;1.95;;
22282;SDS011;11310;51.528;21.204;2022-07-25T09:22:24;3.40;;;2.00;;
22282;SDS011;11310;51.528;21.204;2022-07-25T09:24:53;2.97;;;2.10;;
22282;SDS011;11310;51.528;21.204;2022-07-25T09:27:22;6.15;;;2.22;;
22282;SDS011;11310;51.528;21.204;2022-07-25T09:29:54;2.47;;;1.83;;
22282;SDS011;11310;51.528;21.204;2022-07-25T09:32:23;3.40;;;2.08;;
22282;SDS011;11310;51.528;21.204;2022-07-25T09:34:54;6.20;;;2.08;;
22282;SDS011;11310;51.528;21.204;2022-07-25T09:37:25;3.40;;;1.98;;
22282;SDS011;11310;51.528;21.204;2022-07-25T09:39:54;5.20;;;1.70;;
22282;SDS011;11310;51.528;21.204;2022-07-25T09:42:24;6.97;;;3.55;;
22282;SDS011;11310;51.528;21.204;2022-07-25T09:45:00;3.55;;;2.30;;
22282;SDS011;11310;51.528;21.204;2022-07-25T09:47:36;6.35;;;2.15;;
22282;SDS011;11310;51.528;21.204;2022-07-25T09:50:25;5.95;;;2.03;;
22282;SDS011;11310;51.528;21.204;2022-07-25T09:53:00;2.92;;;1.50;;
22282;SDS011;11310;51.528;21.204;2022-07-25T09:55:30;7.15;;;2.10;;
22282;SDS011;11310;51.528;21.204;2022-07-25T09:58:00;2.63;;;1.67;;
22282;SDS011;11310;51.528;21.204;2022-07-25T10:00:30;3.42;;;1.88;;
22282;SDS011;11310;51.528;21.204;2022-07-25T10:06:11;14.57;;;2.75;;
22282;SDS011;11310;51.528;21.204;2022-07-25T10:08:48;3.15;;;1.80;;
22282;SDS011;11310;51.528;21.204;2022-07-25T10:11:19;2.83;;;1.85;;
22282;SDS011;11310;51.528;21.204;2022-07-25T10:13:50;3.00;;;2.22;;
22282;SDS011;11310;51.528;21.204;2022-07-25T10:16:22;6.03;;;1.83;;
22282;SDS011;11310;51.528;21.204;2022-07-25T10:18:54;3.83;;;1.90;;
22282;SDS011;11310;51.528;21.204;2022-07-25T10:21:26;7.07;;;2.22;;
22282;SDS011;11310;51.528;21.204;2022-07-25T10:24:01;4.70;;;2.03;;
22282;SDS011;11310;51.528;21.204;2022-07-25T10:26:34;4.00;;;1.60;;
22282;SDS011;11310;51.528;21.204;2022-07-25T10:29:07;4.38;;;2.15;;
22282;SDS011;11310;51.528;21.204;2022-07-25T10:31:41;3.88;;;1.58;;
22282;SDS011;11310;51.528;21.204;2022-07-25T10:34:27;4.30;;;1.85;;
22282;SDS011;11310;51.528;21.204;2022-07-25T10:37:09;3.58;;;1.75;;
22282;SDS011;11310;51.528;21.204;2022-07-25T10:39:40;3.45;;;2.10;;
22282;SDS011;11310;51.528;21.204;2022-07-25T10:42:19;3.97;;;1.73;;
22282;SDS011;11310;51.528;21.204;2022-07-25T10:44:54;2.92;;;1.90;;
22282;SDS011;11310;51.528;21.204;2022-07-25T10:47:25;2.47;;;1.50;;
22282;SDS011;11310;51.528;21.204;2022-07-25T10:50:00;4.07;;;2.28;;
22282;SDS011;11310;51.528;21.204;2022-07-25T10:52:58;4.88;;;1.45;;
22282;SDS011;11310;51.528;21.204;2022-07-25T10:55:41;10.98;;;2.50;;
22282;SDS011;11310;51.528;21.204;2022-07-25T10:58:45;6.80;;;2.28;;
22282;SDS011;11310;51.528;21.204;2022-07-25T11:01:20;3.03;;;1.63;;
22282;SDS011;11310;51.528;21.204;2022-07-25T11:03:54;7.60;;;1.90;;
22282;SDS011;11310;51.528;21.204;2022-07-25T11:06:36;7.22;;;1.83;;
22282;SDS011;11310;51.528;21.204;2022-07-25T11:09:16;5.10;;;2.00;;
22282;SDS011;11310;51.528;21.204;2022-07-25T11:11:56;6.20;;;2.08;;
22282;SDS011;11310;51.528;21.204;2022-07-25T11:14:31;3.97;;;1.60;;
22282;SDS011;11310;51.528;21.204;2022-07-25T11:17:11;1.95;;;1.33;;
22282;SDS011;11310;51.528;21.204;2022-07-25T11:19:52;4.88;;;1.45;;
22282;SDS011;11310;51.528;21.204;2022-07-25T11:22:29;10.63;;;1.63;;
22282;SDS011;11310;51.528;21.204;2022-07-25T11:25:10;3.38;;;1.67;;
22282;SDS011;11310;51.528;21.204;2022-07-25T11:27:41;7.30;;;2.08;;
22282;SDS011;11310;51.528;21.204;2022-07-25T11:30:21;3.88;;;1.60;;
22282;SDS011;11310;51.528;21.204;2022-07-25T11:32:53;3.13;;;1.90;;
22282;SDS011;11310;51.528;21.204;2022-07-25T11:35:23;4.93;;;1.50;;
22282;SDS011;11310;51.528;21.204;2022-07-25T11:37:56;2.25;;;1.60;;
22282;SDS011;11310;51.528;21.204;2022-07-25T11:40:30;4.65;;;1.70;;
22282;SDS011;11310;51.528;21.204;2022-07-25T11:43:03;3.53;;;1.83;;
22282;SDS011;11310;51.528;21.204;2022-07-25T11:46:00;3.80;;;1.80;;
22282;SDS011;11310;51.528;21.204;2022-07-25T11:48:34;3.13;;;1.55;;
22282;SDS011;11310;51.528;21.204;2022-07-25T11:51:11;2.08;;;1.45;;
22282;SDS011;11310;51.528;21.204;2022-07-25T11:53:45;3.65;;;1.90;;
22282;SDS011;11310;51.528;21.204;2022-07-25T11:56:23;4.60;;;1.80;;
22282;SDS011;11310;51.528;21.204;2022-07-25T11:59:08;9.95;;;2.25;;
22282;SDS011;11310;51.528;21.204;2022-07-25T12:01:39;2.63;;;1.48;;
22282;SDS011;11310;51.528;21.204;2022-07-25T12:04:13;5.80;;;1.88;;
22282;SDS011;11310;51.528;21.204;2022-07-25T12:06:47;4.78;;;1.88;;
22282;SDS011;11310;51.528;21.204;2022-07-25T12:09:17;4.43;;;1.70;;
22282;SDS011;11310;51.528;21.204;2022-07-25T12:12:00;4.25;;;1.50;;
22282;SDS011;11310;51.528;21.204;2022-07-25T12:14:30;2.55;;;1.60;;
22282;SDS011;11310;51.528;21.204;2022-07-25T12:17:08;4.18;;;1.48;;
22282;SDS011;11310;51.528;21.204;2022-07-25T12:19:38;4.07;;;1.50;;
22282;SDS011;11310;51.528;21.204;2022-07-25T12:22:07;3.30;;;1.65;;
22282;SDS011;11310;51.528;21.204;2022-07-25T12:24:40;6.15;;;1.70;;
22282;SDS011;11310;51.528;21.204;2022-07-25T12:27:11;5.22;;;1.60;;
22282;SDS011;11310;51.528;21.204;2022-07-25T12:29:42;3.65;;;1.50;;
22282;SDS011;11310;51.528;21.204;2022-07-25T12:32:11;3.50;;;1.50;;
22282;SDS011;11310;51.528;21.204;2022-07-25T12:34:41;2.70;;;1.33;;
22282;SDS011;11310;51.528;21.204;2022-07-25T12:37:15;7.20;;;1.40;;
22282;SDS011;11310;51.528;21.204;2022-07-25T12:39:47;2.63;;;1.40;;
22282;SDS011;11310;51.528;21.204;2022-07-25T12:42:17;2.83;;;1.50;;
22282;SDS011;11310;51.528;21.204;2022-07-25T12:44:48;1.40;;;1.10;;
22282;SDS011;11310;51.528;21.204;2022-07-25T12:47:25;5.60;;;1.58;;
22282;SDS011;11310;51.528;21.204;2022-07-25T12:49:57;4.10;;;1.55;;
22282;SDS011;11310;51.528;21.204;2022-07-25T12:52:28;2.72;;;1.52;;
22282;SDS011;11310;51.528;21.204;2022-07-25T12:54:59;1.65;;;1.30;;
22282;SDS011;11310;51.528;21.204;2022-07-25T12:57:30;1.95;;;1.17;;
22282;SDS011;11310;51.528;21.204;2022-07-25T13:00:00;2.42;;;1.38;;
22282;SDS011;11310;51.528;21.204;2022-07-25T13:02:31;2.15;;;1.42;;
22282;SDS011;11310;51.528;21.204;2022-07-25T13:05:00;2.05;;;1.20;;
22282;SDS011;11310;51.528;21.204;2022-07-25T13:07:29;3.25;;;1.73;;
22282;SDS011;11310;51.528;21.204;2022-07-25T13:10:06;2.78;;;1.55;;
22282;SDS011;11310;51.528;21.204;2022-07-25T13:12:39;6.18;;;1.30;;
22282;SDS011;11310;51.528;21.204;2022-07-25T13:15:12;2.30;;;1.40;;
22282;SDS011;11310;51.528;21.204;2022-07-25T13:17:45;6.53;;;1.58;;
22282;SDS011;11310;51.528;21.204;2022-07-25T13:20:17;4.88;;;1.50;;
22282;SDS011;11310;51.528;21.204;2022-07-25T13:22:46;4.78;;;1.27;;
22282;SDS011;11310;51.528;21.204;2022-07-25T13:25:15;4.20;;;1.33;;
22282;SDS011;11310;51.528;21.204;2022-07-25T13:27:46;4.10;;;1.83;;
22282;SDS011;11310;51.528;21.204;2022-07-25T13:32:44;3.90;;;0.85;;
22282;SDS011;11310;51.528;21.204;2022-07-25T13:37:47;2.17;;;1.00;;
22282;SDS011;11310;51.528;21.204;2022-07-25T13:40:17;3.40;;;2.03;;
22282;SDS011;11310;51.528;21.204;2022-07-25T13:42:52;1.52;;;1.30;;
22282;SDS011;11310;51.528;21.204;2022-07-25T13:45:20;4.22;;;1.25;;
22282;SDS011;11310;51.528;21.204;2022-07-25T13:47:50;3.28;;;1.23;;
22282;SDS011;11310;51.528;21.204;2022-07-25T13:50:39;3.58;;;1.40;;
22282;SDS011;11310;51.528;21.204;2022-07-25T13:53:08;3.88;;;1.30;;
22282;SDS011;11310;51.528;21.204;2022-07-25T13:55:37;1.92;;;1.00;;
22282;SDS011;11310;51.528;21.204;2022-07-25T13:58:09;5.03;;;1.38;;
22282;SDS011;11310;51.528;21.204;2022-07-25T14:00:37;2.42;;;1.27;;
22282;SDS011;11310;51.528;21.204;2022-07-25T14:03:06;5.55;;;1.27;;
22282;SDS011;11310;51.528;21.204;2022-07-25T14:05:38;2.78;;;1.40;;
22282;SDS011;11310;51.528;21.204;2022-07-25T14:08:07;3.88;;;1.67;;
22282;SDS011;11310;51.528;21.204;2022-07-25T14:10:36;1.70;;;1.20;;
22282;SDS011;11310;51.528;21.204;2022-07-25T14:13:10;3.70;;;1.27;;
22282;SDS011;11310;51.528;21.204;2022-07-25T14:15:40;2.40;;;1.25;;
22282;SDS011;11310;51.528;21.204;2022-07-25T14:18:09;2.47;;;1.27;;
22282;SDS011;11310;51.528;21.204;2022-07-25T14:20:38;4.40;;;1.15;;
22282;SDS011;11310;51.528;21.204;2022-07-25T14:23:09;4.38;;;1.20;;
22282;SDS011;11310;51.528;21.204;2022-07-25T14:25:42;1.80;;;1.25;;
22282;SDS011;11310;51.528;21.204;2022-07-25T14:28:15;1.55;;;1.00;;
22282;SDS011;11310;51.528;21.204;2022-07-25T14:30:46;8.50;;;2.08;;
22282;SDS011;11310;51.528;21.204;2022-07-25T14:33:17;1.48;;;1.00;;
22282;SDS011;11310;51.528;21.204;2022-07-25T14:35:48;3.45;;;0.98;;
22282;SDS011;11310;51.528;21.204;2022-07-25T14:38:18;2.42;;;1.40;;
22282;SDS011;11310;51.528;21.204;2022-07-25T14:40:47;2.03;;;1.00;;
22282;SDS011;11310;51.528;21.204;2022-07-25T14:43:19;1.77;;;1.00;;
22282;SDS011;11310;51.528;21.204;2022-07-25T14:45:48;4.50;;;1.27;;
22282;SDS011;11310;51.528;21.204;2022-07-25T14:48:17;3.10;;;1.00;;
22282;SDS011;11310;51.528;21.204;2022-07-25T14:50:48;3.38;;;1.27;;
22282;SDS011;11310;51.528;21.204;2022-07-25T14:53:17;6.82;;;1.17;;
22282;SDS011;11310;51.528;21.204;2022-07-25T14:55:46;2.22;;;1.23;;
22282;SDS011;11310;51.528;21.204;2022-07-25T14:58:16;1.67;;;1.20;;
22282;SDS011;11310;51.528;21.204;2022-07-25T15:00:46;3.90;;;1.40;;
22282;SDS011;11310;51.528;21.204;2022-07-25T15:03:17;2.53;;;1.45;;
22282;SDS011;11310;51.528;21.204;2022-07-25T15:05:46;3.35;;;1.40;;
22282;SDS011;11310;51.528;21.204;2022-07-25T15:08:16;2.08;;;1.13;;
22282;SDS011;11310;51.528;21.204;2022-07-25T15:10:47;3.80;;;1.63;;
22282;SDS011;11310;51.528;21.204;2022-07-25T15:13:19;3.83;;;1.60;;
22282;SDS011;11310;51.528;21.204;2022-07-25T15:18:35;1.65;;;1.20;;
22282;SDS011;11310;51.528;21.204;2022-07-25T15:21:29;1.98;;;0.95;;
22282;SDS011;11310;51.528;21.204;2022-07-25T15:24:02;4.93;;;1.33;;
22282;SDS011;11310;51.528;21.204;2022-07-25T15:26:31;4.75;;;1.40;;
22282;SDS011;11310;51.528;21.204;2022-07-25T15:29:01;2.92;;;1.13;;